sensor_id;sensor_type;location;lat;lon;timestamp;P1;durP1;ratioP1;P2;durP2;ratioP2
20997;SDS011;10657;51.276;6.390;2022-08-19T00:01:44;18.45;;;12.02;;
20997;SDS011;10657;51.276;6.390;2022-08-19T00:04:20;15.02;;;10.63;;
20997;SDS011;10657;51.276;6.390;2022-08-19T00:06:47;14.18;;;10.90;;
20997;SDS011;10657;51.276;6.390;2022-08-19T00:09:15;14.23;;;11.23;;
20997;SDS011;10657;51.276;6.390;2022-08-19T00:11:43;15.90;;;11.38;;
20997;SDS011;10657;51.276;6.390;2022-08-19T00:14:11;14.07;;;11.00;;
20997;SDS011;10657;51.276;6.390;2022-08-19T00:16:39;13.88;;;10.93;;
20997;SDS011;10657;51.276;6.390;2022-08-19T00:19:07;15.32;;;10.60;;
20997;SDS011;10657;51.276;6.390;2022-08-19T00:21:34;15.93;;;10.50;;
20997;SDS011;10657;51.276;6.390;2022-08-19T00:24:06;14.35;;;10.65;;
20997;SDS011;10657;51.276;6.390;2022-08-19T00:26:34;14.73;;;10.63;;
20997;SDS011;10657;51.276;6.390;2022-08-19T00:29:02;15.18;;;11.50;;
20997;SDS011;10657;51.276;6.390;2022-08-19T00:31:29;16.00;;;10.73;;
20997;SDS011;10657;51.276;6.390;2022-08-19T00:33:57;14.82;;;11.57;;
20997;SDS011;10657;51.276;6.390;2022-08-19T00:36:25;13.90;;;10.98;;
20997;SDS011;10657;51.276;6.390;2022-08-19T00:38:52;14.02;;;11.10;;
20997;SDS011;10657;51.276;6.390;2022-08-19T00:41:20;15.35;;;11.50;;
20997;SDS011;10657;51.276;6.390;2022-08-19T00:43:56;18.15;;;11.10;;
20997;SDS011;10657;51.276;6.390;2022-08-19T00:46:23;14.70;;;11.07;;
20997;SDS011;10657;51.276;6.390;2022-08-19T00:48:50;15.43;;;11.25;;
20997;SDS011;10657;51.276;6.390;2022-08-19T00:51:17;14.43;;;12.13;;
20997;SDS011;10657;51.276;6.390;2022-08-19T00:53:44;13.85;;;11.45;;
20997;SDS011;10657;51.276;6.390;2022-08-19T00:56:12;15.07;;;11.45;;
20997;SDS011;10657;51.276;6.390;2022-08-19T00:58:39;13.93;;;11.70;;
20997;SDS011;10657;51.276;6.390;2022-08-19T01:01:06;15.57;;;11.45;;
20997;SDS011;10657;51.276;6.390;2022-08-19T01:03:37;16.00;;;11.77;;
20997;SDS011;10657;51.276;6.390;2022-08-19T01:06:23;14.65;;;11.35;;
20997;SDS011;10657;51.276;6.390;2022-08-19T01:08:51;17.25;;;11.55;;
20997;SDS011;10657;51.276;6.390;2022-08-19T01:11:18;15.68;;;11.88;;
20997;SDS011;10657;51.276;6.390;2022-08-19T01:13:45;16.77;;;11.43;;
20997;SDS011;10657;51.276;6.390;2022-08-19T01:16:15;13.35;;;10.68;;
20997;SDS011;10657;51.276;6.390;2022-08-19T01:18:43;15.35;;;11.57;;
20997;SDS011;10657;51.276;6.390;2022-08-19T01:21:12;20.17;;;12.93;;
20997;SDS011;10657;51.276;6.390;2022-08-19T01:23:43;16.05;;;11.93;;
20997;SDS011;10657;51.276;6.390;2022-08-19T01:26:13;17.48;;;13.07;;
20997;SDS011;10657;51.276;6.390;2022-08-19T01:28:42;15.32;;;12.95;;
20997;SDS011;10657;51.276;6.390;2022-08-19T01:31:10;20.10;;;13.93;;
20997;SDS011;10657;51.276;6.390;2022-08-19T01:33:54;20.20;;;13.70;;
20997;SDS011;10657;51.276;6.390;2022-08-19T01:36:26;20.13;;;15.27;;
20997;SDS011;10657;51.276;6.390;2022-08-19T01:38:54;19.48;;;15.57;;
20997;SDS011;10657;51.276;6.390;2022-08-19T01:41:21;20.52;;;17.20;;
20997;SDS011;10657;51.276;6.390;2022-08-19T01:43:50;19.17;;;17.08;;
20997;SDS011;10657;51.276;6.390;2022-08-19T01:46:37;23.30;;;17.30;;
20997;SDS011;10657;51.276;6.390;2022-08-19T01:49:06;23.40;;;17.58;;
20997;SDS011;10657;51.276;6.390;2022-08-19T01:51:34;23.30;;;19.02;;
20997;SDS011;10657;51.276;6.390;2022-08-19T01:54:05;25.73;;;17.73;;
20997;SDS011;10657;51.276;6.390;2022-08-19T01:56:32;22.73;;;18.77;;
20997;SDS011;10657;51.276;6.390;2022-08-19T01:59:05;24.35;;;17.88;;
20997;SDS011;10657;51.276;6.390;2022-08-19T02:01:32;29.20;;;19.58;;
20997;SDS011;10657;51.276;6.390;2022-08-19T02:04:00;29.10;;;20.35;;
20997;SDS011;10657;51.276;6.390;2022-08-19T02:06:28;24.40;;;20.33;;
20997;SDS011;10657;51.276;6.390;2022-08-19T02:08:55;27.05;;;20.63;;
20997;SDS011;10657;51.276;6.390;2022-08-19T02:11:24;30.40;;;23.38;;
20997;SDS011;10657;51.276;6.390;2022-08-19T02:13:53;29.80;;;22.75;;
20997;SDS011;10657;51.276;6.390;2022-08-19T02:16:20;31.35;;;26.45;;
20997;SDS011;10657;51.276;6.390;2022-08-19T02:18:48;33.55;;;28.70;;
20997;SDS011;10657;51.276;6.390;2022-08-19T02:21:16;32.95;;;27.48;;
20997;SDS011;10657;51.276;6.390;2022-08-19T02:23:44;33.47;;;28.35;;
20997;SDS011;10657;51.276;6.390;2022-08-19T02:26:11;33.90;;;26.88;;
20997;SDS011;10657;51.276;6.390;2022-08-19T02:28:39;30.73;;;26.50;;
20997;SDS011;10657;51.276;6.390;2022-08-19T02:31:15;33.17;;;26.88;;
20997;SDS011;10657;51.276;6.390;2022-08-19T02:33:42;31.33;;;25.73;;
20997;SDS011;10657;51.276;6.390;2022-08-19T02:36:10;31.05;;;27.25;;
20997;SDS011;10657;51.276;6.390;2022-08-19T02:38:38;35.40;;;27.75;;
20997;SDS011;10657;51.276;6.390;2022-08-19T02:41:06;31.58;;;26.38;;
20997;SDS011;10657;51.276;6.390;2022-08-19T02:43:36;34.08;;;27.80;;
20997;SDS011;10657;51.276;6.390;2022-08-19T02:46:13;33.05;;;27.75;;
20997;SDS011;10657;51.276;6.390;2022-08-19T02:48:40;36.38;;;27.95;;
20997;SDS011;10657;51.276;6.390;2022-08-19T02:51:08;37.20;;;29.67;;
20997;SDS011;10657;51.276;6.390;2022-08-19T02:53:35;33.78;;;30.02;;
20997;SDS011;10657;51.276;6.390;2022-08-19T02:56:06;33.42;;;28.35;;
20997;SDS011;10657;51.276;6.390;2022-08-19T02:58:33;36.97;;;27.70;;
20997;SDS011;10657;51.276;6.390;2022-08-19T03:01:01;34.33;;;29.77;;
20997;SDS011;10657;51.276;6.390;2022-08-19T03:03:28;36.10;;;28.25;;
20997;SDS011;10657;51.276;6.390;2022-08-19T03:06:16;35.42;;;29.13;;
20997;SDS011;10657;51.276;6.390;2022-08-19T03:08:44;32.15;;;27.52;;
20997;SDS011;10657;51.276;6.390;2022-08-19T03:11:19;35.25;;;29.30;;
20997;SDS011;10657;51.276;6.390;2022-08-19T03:13:46;33.47;;;28.70;;
20997;SDS011;10657;51.276;6.390;2022-08-19T03:16:19;35.67;;;30.10;;
20997;SDS011;10657;51.276;6.390;2022-08-19T03:18:46;34.10;;;28.85;;
20997;SDS011;10657;51.276;6.390;2022-08-19T03:21:21;35.67;;;29.70;;
20997;SDS011;10657;51.276;6.390;2022-08-19T03:23:50;33.55;;;28.35;;
20997;SDS011;10657;51.276;6.390;2022-08-19T03:26:17;36.47;;;29.40;;
20997;SDS011;10657;51.276;6.390;2022-08-19T03:28:44;37.40;;;29.88;;
20997;SDS011;10657;51.276;6.390;2022-08-19T03:31:23;36.67;;;31.20;;
20997;SDS011;10657;51.276;6.390;2022-08-19T03:34:11;37.10;;;30.05;;
20997;SDS011;10657;51.276;6.390;2022-08-19T03:36:39;34.08;;;28.33;;
20997;SDS011;10657;51.276;6.390;2022-08-19T03:39:06;33.28;;;28.92;;
20997;SDS011;10657;51.276;6.390;2022-08-19T03:41:38;36.08;;;29.48;;
20997;SDS011;10657;51.276;6.390;2022-08-19T03:44:15;33.05;;;29.17;;
20997;SDS011;10657;51.276;6.390;2022-08-19T03:46:48;34.03;;;28.58;;
20997;SDS011;10657;51.276;6.390;2022-08-19T03:49:16;34.92;;;30.55;;
20997;SDS011;10657;51.276;6.390;2022-08-19T03:51:45;37.25;;;31.48;;
20997;SDS011;10657;51.276;6.390;2022-08-19T03:54:13;36.85;;;31.88;;
20997;SDS011;10657;51.276;6.390;2022-08-19T03:56:41;35.72;;;29.95;;
20997;SDS011;10657;51.276;6.390;2022-08-19T03:59:10;38.05;;;31.55;;
20997;SDS011;10657;51.276;6.390;2022-08-19T04:01:37;39.50;;;31.92;;
20997;SDS011;10657;51.276;6.390;2022-08-19T04:04:04;39.00;;;31.00;;
20997;SDS011;10657;51.276;6.390;2022-08-19T04:06:35;37.55;;;32.17;;
20997;SDS011;10657;51.276;6.390;2022-08-19T04:09:06;35.35;;;30.50;;
20997;SDS011;10657;51.276;6.390;2022-08-19T04:11:34;40.00;;;32.50;;
20997;SDS011;10657;51.276;6.390;2022-08-19T04:14:10;39.67;;;35.45;;
20997;SDS011;10657;51.276;6.390;2022-08-19T04:16:37;38.10;;;33.97;;
20997;SDS011;10657;51.276;6.390;2022-08-19T04:19:05;43.40;;;34.67;;
20997;SDS011;10657;51.276;6.390;2022-08-19T04:21:33;41.80;;;33.80;;
20997;SDS011;10657;51.276;6.390;2022-08-19T04:24:00;39.25;;;32.75;;
20997;SDS011;10657;51.276;6.390;2022-08-19T04:26:31;40.97;;;32.85;;
20997;SDS011;10657;51.276;6.390;2022-08-19T04:28:59;39.65;;;32.92;;
20997;SDS011;10657;51.276;6.390;2022-08-19T04:31:27;39.53;;;33.72;;
20997;SDS011;10657;51.276;6.390;2022-08-19T04:33:58;38.60;;;34.22;;
20997;SDS011;10657;51.276;6.390;2022-08-19T04:36:27;39.28;;;32.38;;
20997;SDS011;10657;51.276;6.390;2022-08-19T04:38:56;39.85;;;32.85;;
20997;SDS011;10657;51.276;6.390;2022-08-19T04:41:24;42.53;;;35.08;;
20997;SDS011;10657;51.276;6.390;2022-08-19T04:44:10;37.30;;;32.58;;
20997;SDS011;10657;51.276;6.390;2022-08-19T04:46:38;39.42;;;33.60;;
20997;SDS011;10657;51.276;6.390;2022-08-19T04:49:18;40.95;;;33.45;;
20997;SDS011;10657;51.276;6.390;2022-08-19T04:51:46;42.95;;;35.00;;
20997;SDS011;10657;51.276;6.390;2022-08-19T04:54:16;46.53;;;35.95;;
20997;SDS011;10657;51.276;6.390;2022-08-19T04:57:03;42.13;;;35.20;;
20997;SDS011;10657;51.276;6.390;2022-08-19T04:59:32;46.90;;;35.58;;
20997;SDS011;10657;51.276;6.390;2022-08-19T05:01:59;42.50;;;34.90;;
20997;SDS011;10657;51.276;6.390;2022-08-19T05:04:26;42.90;;;33.92;;
20997;SDS011;10657;51.276;6.390;2022-08-19T05:06:58;38.42;;;32.72;;
20997;SDS011;10657;51.276;6.390;2022-08-19T05:09:26;38.97;;;33.60;;
20997;SDS011;10657;51.276;6.390;2022-08-19T05:12:14;38.33;;;32.13;;
20997;SDS011;10657;51.276;6.390;2022-08-19T05:14:41;38.15;;;32.75;;
20997;SDS011;10657;51.276;6.390;2022-08-19T05:17:08;37.17;;;31.08;;
20997;SDS011;10657;51.276;6.390;2022-08-19T05:19:53;38.00;;;33.22;;
20997;SDS011;10657;51.276;6.390;2022-08-19T05:22:39;39.17;;;31.15;;
20997;SDS011;10657;51.276;6.390;2022-08-19T05:25:08;36.78;;;29.30;;
20997;SDS011;10657;51.276;6.390;2022-08-19T05:27:39;39.28;;;30.85;;
20997;SDS011;10657;51.276;6.390;2022-08-19T05:30:06;35.83;;;30.95;;
20997;SDS011;10657;51.276;6.390;2022-08-19T05:32:33;39.83;;;31.05;;
20997;SDS011;10657;51.276;6.390;2022-08-19T05:35:00;38.05;;;31.20;;
20997;SDS011;10657;51.276;6.390;2022-08-19T05:37:28;37.88;;;32.28;;
20997;SDS011;10657;51.276;6.390;2022-08-19T05:39:55;41.00;;;31.60;;
20997;SDS011;10657;51.276;6.390;2022-08-19T05:42:22;38.65;;;30.83;;
20997;SDS011;10657;51.276;6.390;2022-08-19T05:44:50;37.40;;;29.67;;
20997;SDS011;10657;51.276;6.390;2022-08-19T05:47:18;38.70;;;31.98;;
20997;SDS011;10657;51.276;6.390;2022-08-19T05:49:46;38.47;;;28.83;;
20997;SDS011;10657;51.276;6.390;2022-08-19T05:52:14;34.53;;;27.65;;
20997;SDS011;10657;51.276;6.390;2022-08-19T05:54:44;35.88;;;28.27;;
20997;SDS011;10657;51.276;6.390;2022-08-19T05:57:16;36.70;;;28.88;;
20997;SDS011;10657;51.276;6.390;2022-08-19T05:59:44;34.25;;;27.33;;
20997;SDS011;10657;51.276;6.390;2022-08-19T06:02:27;39.85;;;28.88;;
20997;SDS011;10657;51.276;6.390;2022-08-19T06:04:56;35.63;;;29.70;;
20997;SDS011;10657;51.276;6.390;2022-08-19T06:07:23;33.33;;;26.52;;
20997;SDS011;10657;51.276;6.390;2022-08-19T06:09:51;35.47;;;26.85;;
20997;SDS011;10657;51.276;6.390;2022-08-19T06:12:26;37.58;;;29.75;;
20997;SDS011;10657;51.276;6.390;2022-08-19T06:14:58;35.40;;;29.30;;
20997;SDS011;10657;51.276;6.390;2022-08-19T06:17:27;39.42;;;30.38;;
20997;SDS011;10657;51.276;6.390;2022-08-19T06:19:57;39.47;;;30.83;;
20997;SDS011;10657;51.276;6.390;2022-08-19T06:22:24;41.00;;;31.85;;
20997;SDS011;10657;51.276;6.390;2022-08-19T06:24:54;38.63;;;32.35;;
20997;SDS011;10657;51.276;6.390;2022-08-19T06:27:22;41.03;;;33.38;;
20997;SDS011;10657;51.276;6.390;2022-08-19T06:29:49;37.90;;;32.33;;
20997;SDS011;10657;51.276;6.390;2022-08-19T06:32:16;40.85;;;33.38;;
20997;SDS011;10657;51.276;6.390;2022-08-19T06:34:45;41.35;;;36.05;;
20997;SDS011;10657;51.276;6.390;2022-08-19T06:37:13;43.95;;;37.05;;
20997;SDS011;10657;51.276;6.390;2022-08-19T06:39:41;45.05;;;35.90;;
20997;SDS011;10657;51.276;6.390;2022-08-19T06:42:08;48.63;;;34.10;;
20997;SDS011;10657;51.276;6.390;2022-08-19T06:44:38;50.38;;;36.75;;
20997;SDS011;10657;51.276;6.390;2022-08-19T06:47:09;44.72;;;37.42;;
20997;SDS011;10657;51.276;6.390;2022-08-19T06:49:48;45.75;;;35.83;;
20997;SDS011;10657;51.276;6.390;2022-08-19T06:52:15;45.60;;;35.55;;
20997;SDS011;10657;51.276;6.390;2022-08-19T06:54:42;44.92;;;32.30;;
20997;SDS011;10657;51.276;6.390;2022-08-19T06:57:22;47.83;;;35.08;;
20997;SDS011;10657;51.276;6.390;2022-08-19T06:59:49;49.60;;;37.63;;
20997;SDS011;10657;51.276;6.390;2022-08-19T07:02:17;51.92;;;38.47;;
20997;SDS011;10657;51.276;6.390;2022-08-19T07:04:44;54.58;;;40.03;;
20997;SDS011;10657;51.276;6.390;2022-08-19T07:07:13;52.50;;;36.47;;
20997;SDS011;10657;51.276;6.390;2022-08-19T07:09:46;51.50;;;38.42;;
20997;SDS011;10657;51.276;6.390;2022-08-19T07:12:23;55.95;;;42.03;;
20997;SDS011;10657;51.276;6.390;2022-08-19T07:14:51;57.80;;;41.40;;
20997;SDS011;10657;51.276;6.390;2022-08-19T07:17:19;56.13;;;39.42;;
20997;SDS011;10657;51.276;6.390;2022-08-19T07:19:47;57.63;;;42.63;;
20997;SDS011;10657;51.276;6.390;2022-08-19T07:22:14;59.15;;;41.83;;
20997;SDS011;10657;51.276;6.390;2022-08-19T07:24:42;54.08;;;39.05;;
20997;SDS011;10657;51.276;6.390;2022-08-19T07:27:16;58.17;;;39.45;;
20997;SDS011;10657;51.276;6.390;2022-08-19T07:29:49;57.17;;;43.08;;
20997;SDS011;10657;51.276;6.390;2022-08-19T07:32:23;55.42;;;40.38;;
20997;SDS011;10657;51.276;6.390;2022-08-19T07:34:54;56.60;;;42.25;;
20997;SDS011;10657;51.276;6.390;2022-08-19T07:37:22;53.38;;;37.58;;
20997;SDS011;10657;51.276;6.390;2022-08-19T07:39:58;51.60;;;40.28;;
20997;SDS011;10657;51.276;6.390;2022-08-19T07:42:25;55.63;;;38.95;;
20997;SDS011;10657;51.276;6.390;2022-08-19T07:44:55;52.25;;;37.75;;
20997;SDS011;10657;51.276;6.390;2022-08-19T07:47:22;53.55;;;37.67;;
20997;SDS011;10657;51.276;6.390;2022-08-19T07:50:10;48.72;;;36.78;;
20997;SDS011;10657;51.276;6.390;2022-08-19T07:52:38;48.42;;;35.72;;
20997;SDS011;10657;51.276;6.390;2022-08-19T07:55:07;50.58;;;37.05;;
20997;SDS011;10657;51.276;6.390;2022-08-19T07:57:54;53.03;;;37.63;;
20997;SDS011;10657;51.276;6.390;2022-08-19T08:00:21;49.35;;;34.72;;
20997;SDS011;10657;51.276;6.390;2022-08-19T08:02:49;48.58;;;37.17;;
20997;SDS011;10657;51.276;6.390;2022-08-19T08:05:20;48.58;;;37.63;;
20997;SDS011;10657;51.276;6.390;2022-08-19T08:08:09;48.15;;;35.20;;
20997;SDS011;10657;51.276;6.390;2022-08-19T08:10:55;45.45;;;31.25;;
20997;SDS011;10657;51.276;6.390;2022-08-19T08:13:23;43.85;;;29.10;;
20997;SDS011;10657;51.276;6.390;2022-08-19T08:15:51;40.85;;;29.70;;
20997;SDS011;10657;51.276;6.390;2022-08-19T08:18:21;32.83;;;22.38;;
20997;SDS011;10657;51.276;6.390;2022-08-19T08:20:56;38.40;;;25.00;;
20997;SDS011;10657;51.276;6.390;2022-08-19T08:23:23;38.33;;;29.02;;
20997;SDS011;10657;51.276;6.390;2022-08-19T08:25:53;38.05;;;25.80;;
20997;SDS011;10657;51.276;6.390;2022-08-19T08:28:21;38.45;;;30.27;;
20997;SDS011;10657;51.276;6.390;2022-08-19T08:30:49;41.60;;;29.88;;
20997;SDS011;10657;51.276;6.390;2022-08-19T08:33:18;42.47;;;29.83;;
20997;SDS011;10657;51.276;6.390;2022-08-19T08:35:58;36.75;;;27.48;;
20997;SDS011;10657;51.276;6.390;2022-08-19T08:38:25;41.60;;;28.85;;
20997;SDS011;10657;51.276;6.390;2022-08-19T08:41:05;43.55;;;27.55;;
20997;SDS011;10657;51.276;6.390;2022-08-19T08:43:37;40.33;;;25.65;;
20997;SDS011;10657;51.276;6.390;2022-08-19T08:48:46;33.88;;;24.50;;
20997;SDS011;10657;51.276;6.390;2022-08-19T08:51:18;35.75;;;24.00;;
20997;SDS011;10657;51.276;6.390;2022-08-19T08:53:48;32.20;;;22.27;;
20997;SDS011;10657;51.276;6.390;2022-08-19T08:56:22;28.52;;;20.67;;
20997;SDS011;10657;51.276;6.390;2022-08-19T08:59:05;28.92;;;17.92;;
20997;SDS011;10657;51.276;6.390;2022-08-19T09:01:35;25.95;;;18.42;;
20997;SDS011;10657;51.276;6.390;2022-08-19T09:04:04;23.13;;;16.75;;
20997;SDS011;10657;51.276;6.390;2022-08-19T09:11:50;28.67;;;20.35;;
20997;SDS011;10657;51.276;6.390;2022-08-19T09:14:36;28.88;;;19.85;;
20997;SDS011;10657;51.276;6.390;2022-08-19T09:17:17;24.75;;;17.85;;
20997;SDS011;10657;51.276;6.390;2022-08-19T09:19:49;24.08;;;17.55;;
20997;SDS011;10657;51.276;6.390;2022-08-19T09:22:18;22.15;;;15.40;;
20997;SDS011;10657;51.276;6.390;2022-08-19T09:24:52;24.63;;;15.23;;
20997;SDS011;10657;51.276;6.390;2022-08-19T09:27:20;22.20;;;14.50;;
20997;SDS011;10657;51.276;6.390;2022-08-19T09:30:20;23.50;;;15.60;;
20997;SDS011;10657;51.276;6.390;2022-08-19T09:32:48;20.92;;;13.25;;
20997;SDS011;10657;51.276;6.390;2022-08-19T09:35:19;23.08;;;13.70;;
20997;SDS011;10657;51.276;6.390;2022-08-19T09:37:48;19.13;;;12.18;;
20997;SDS011;10657;51.276;6.390;2022-08-19T09:40:19;20.73;;;14.18;;
20997;SDS011;10657;51.276;6.390;2022-08-19T09:42:49;20.67;;;13.57;;
20997;SDS011;10657;51.276;6.390;2022-08-19T09:45:18;24.33;;;14.23;;
20997;SDS011;10657;51.276;6.390;2022-08-19T09:47:47;22.80;;;15.90;;
20997;SDS011;10657;51.276;6.390;2022-08-19T09:50:15;23.90;;;14.10;;
20997;SDS011;10657;51.276;6.390;2022-08-19T09:52:44;20.42;;;11.23;;
20997;SDS011;10657;51.276;6.390;2022-08-19T09:55:23;21.75;;;12.23;;
20997;SDS011;10657;51.276;6.390;2022-08-19T09:57:56;24.35;;;14.43;;
20997;SDS011;10657;51.276;6.390;2022-08-19T10:00:23;21.48;;;14.38;;
20997;SDS011;10657;51.276;6.390;2022-08-19T10:02:50;25.85;;;15.45;;
20997;SDS011;10657;51.276;6.390;2022-08-19T10:05:18;21.83;;;14.25;;
20997;SDS011;10657;51.276;6.390;2022-08-19T10:08:07;19.83;;;12.75;;
20997;SDS011;10657;51.276;6.390;2022-08-19T10:10:39;17.08;;;11.10;;
20997;SDS011;10657;51.276;6.390;2022-08-19T10:13:12;22.08;;;15.23;;
20997;SDS011;10657;51.276;6.390;2022-08-19T10:15:39;20.52;;;17.10;;
20997;SDS011;10657;51.276;6.390;2022-08-19T10:18:13;22.88;;;16.02;;
20997;SDS011;10657;51.276;6.390;2022-08-19T10:20:44;24.63;;;15.93;;
20997;SDS011;10657;51.276;6.390;2022-08-19T10:23:18;27.20;;;17.50;;
20997;SDS011;10657;51.276;6.390;2022-08-19T10:25:46;25.27;;;17.40;;
20997;SDS011;10657;51.276;6.390;2022-08-19T10:28:13;27.10;;;17.92;;
20997;SDS011;10657;51.276;6.390;2022-08-19T10:30:41;23.45;;;15.63;;
20997;SDS011;10657;51.276;6.390;2022-08-19T10:33:08;25.67;;;18.63;;
20997;SDS011;10657;51.276;6.390;2022-08-19T10:35:36;22.67;;;16.90;;
20997;SDS011;10657;51.276;6.390;2022-08-19T10:38:25;19.13;;;16.40;;
20997;SDS011;10657;51.276;6.390;2022-08-19T10:40:57;27.40;;;19.55;;
20997;SDS011;10657;51.276;6.390;2022-08-19T10:43:24;24.58;;;17.10;;
20997;SDS011;10657;51.276;6.390;2022-08-19T10:45:52;21.73;;;16.60;;
20997;SDS011;10657;51.276;6.390;2022-08-19T10:48:24;24.42;;;13.50;;
20997;SDS011;10657;51.276;6.390;2022-08-19T10:50:52;18.70;;;13.98;;
20997;SDS011;10657;51.276;6.390;2022-08-19T10:53:48;20.90;;;16.05;;
20997;SDS011;10657;51.276;6.390;2022-08-19T10:56:15;24.50;;;15.07;;
20997;SDS011;10657;51.276;6.390;2022-08-19T10:59:01;25.15;;;17.08;;
20997;SDS011;10657;51.276;6.390;2022-08-19T11:01:29;21.42;;;17.10;;
20997;SDS011;10657;51.276;6.390;2022-08-19T11:03:59;18.45;;;14.45;;
20997;SDS011;10657;51.276;6.390;2022-08-19T11:06:26;18.67;;;14.13;;
20997;SDS011;10657;51.276;6.390;2022-08-19T11:08:53;18.80;;;13.98;;
20997;SDS011;10657;51.276;6.390;2022-08-19T11:11:21;24.83;;;14.15;;
20997;SDS011;10657;51.276;6.390;2022-08-19T11:13:49;21.42;;;13.75;;
20997;SDS011;10657;51.276;6.390;2022-08-19T11:16:17;19.55;;;11.65;;
20997;SDS011;10657;51.276;6.390;2022-08-19T11:18:48;18.98;;;13.43;;
20997;SDS011;10657;51.276;6.390;2022-08-19T11:21:17;13.70;;;9.93;;
20997;SDS011;10657;51.276;6.390;2022-08-19T11:23:46;17.92;;;12.05;;
20997;SDS011;10657;51.276;6.390;2022-08-19T11:26:13;16.63;;;10.90;;
20997;SDS011;10657;51.276;6.390;2022-08-19T11:28:41;15.48;;;9.90;;
20997;SDS011;10657;51.276;6.390;2022-08-19T11:31:13;16.25;;;10.95;;
20997;SDS011;10657;51.276;6.390;2022-08-19T11:33:40;14.85;;;10.38;;
20997;SDS011;10657;51.276;6.390;2022-08-19T11:36:13;12.85;;;8.80;;
20997;SDS011;10657;51.276;6.390;2022-08-19T11:38:40;15.38;;;8.95;;
20997;SDS011;10657;51.276;6.390;2022-08-19T11:41:08;12.90;;;7.80;;
20997;SDS011;10657;51.276;6.390;2022-08-19T11:43:35;12.75;;;8.02;;
20997;SDS011;10657;51.276;6.390;2022-08-19T11:46:07;14.82;;;10.15;;
20997;SDS011;10657;51.276;6.390;2022-08-19T11:48:34;17.67;;;9.25;;
20997;SDS011;10657;51.276;6.390;2022-08-19T11:51:05;14.35;;;10.23;;
20997;SDS011;10657;51.276;6.390;2022-08-19T11:53:33;13.02;;;9.07;;
20997;SDS011;10657;51.276;6.390;2022-08-19T11:56:00;13.57;;;9.52;;
20997;SDS011;10657;51.276;6.390;2022-08-19T11:58:27;13.65;;;9.27;;
20997;SDS011;10657;51.276;6.390;2022-08-19T12:00:55;18.15;;;8.30;;
20997;SDS011;10657;51.276;6.390;2022-08-19T12:03:22;13.82;;;7.70;;
20997;SDS011;10657;51.276;6.390;2022-08-19T12:05:50;14.75;;;7.03;;
20997;SDS011;10657;51.276;6.390;2022-08-19T12:08:17;20.33;;;7.53;;
20997;SDS011;10657;51.276;6.390;2022-08-19T12:10:45;16.77;;;7.40;;
20997;SDS011;10657;51.276;6.390;2022-08-19T12:13:12;14.48;;;6.28;;
20997;SDS011;10657;51.276;6.390;2022-08-19T12:15:45;10.02;;;6.93;;
20997;SDS011;10657;51.276;6.390;2022-08-19T12:18:13;11.27;;;6.95;;
20997;SDS011;10657;51.276;6.390;2022-08-19T12:20:41;12.02;;;6.75;;
20997;SDS011;10657;51.276;6.390;2022-08-19T12:23:09;14.02;;;7.40;;
20997;SDS011;10657;51.276;6.390;2022-08-19T12:25:37;12.27;;;6.95;;
20997;SDS011;10657;51.276;6.390;2022-08-19T12:28:04;10.40;;;6.47;;
20997;SDS011;10657;51.276;6.390;2022-08-19T12:30:31;10.15;;;5.45;;
20997;SDS011;10657;51.276;6.390;2022-08-19T12:32:58;14.32;;;7.68;;
20997;SDS011;10657;51.276;6.390;2022-08-19T12:35:25;12.07;;;7.03;;
20997;SDS011;10657;51.276;6.390;2022-08-19T12:37:53;11.63;;;6.07;;
20997;SDS011;10657;51.276;6.390;2022-08-19T12:40:22;15.40;;;7.10;;
20997;SDS011;10657;51.276;6.390;2022-08-19T12:42:52;13.57;;;7.30;;
20997;SDS011;10657;51.276;6.390;2022-08-19T12:45:19;9.93;;;5.63;;
20997;SDS011;10657;51.276;6.390;2022-08-19T12:47:47;10.80;;;6.63;;
20997;SDS011;10657;51.276;6.390;2022-08-19T12:50:15;15.20;;;6.60;;
20997;SDS011;10657;51.276;6.390;2022-08-19T12:52:42;12.35;;;6.00;;
20997;SDS011;10657;51.276;6.390;2022-08-19T12:55:09;14.73;;;6.78;;
20997;SDS011;10657;51.276;6.390;2022-08-19T12:57:38;14.27;;;5.50;;
20997;SDS011;10657;51.276;6.390;2022-08-19T13:00:06;14.93;;;5.60;;
20997;SDS011;10657;51.276;6.390;2022-08-19T13:02:38;12.20;;;6.20;;
20997;SDS011;10657;51.276;6.390;2022-08-19T13:05:07;13.80;;;5.97;;
20997;SDS011;10657;51.276;6.390;2022-08-19T13:07:35;10.43;;;5.18;;
20997;SDS011;10657;51.276;6.390;2022-08-19T13:10:04;10.13;;;5.65;;
20997;SDS011;10657;51.276;6.390;2022-08-19T13:12:32;9.65;;;4.75;;
20997;SDS011;10657;51.276;6.390;2022-08-19T13:14:59;8.38;;;4.85;;
20997;SDS011;10657;51.276;6.390;2022-08-19T13:17:27;11.43;;;5.95;;
20997;SDS011;10657;51.276;6.390;2022-08-19T13:19:54;11.93;;;6.13;;
20997;SDS011;10657;51.276;6.390;2022-08-19T13:22:21;9.88;;;5.70;;
20997;SDS011;10657;51.276;6.390;2022-08-19T13:24:51;12.50;;;5.15;;
20997;SDS011;10657;51.276;6.390;2022-08-19T13:27:18;12.00;;;5.55;;
20997;SDS011;10657;51.276;6.390;2022-08-19T13:29:45;12.05;;;6.00;;
20997;SDS011;10657;51.276;6.390;2022-08-19T13:32:31;10.93;;;5.13;;
20997;SDS011;10657;51.276;6.390;2022-08-19T13:35:17;8.20;;;4.47;;
20997;SDS011;10657;51.276;6.390;2022-08-19T13:37:44;9.32;;;5.28;;
20997;SDS011;10657;51.276;6.390;2022-08-19T13:40:14;18.83;;;5.95;;
20997;SDS011;10657;51.276;6.390;2022-08-19T13:42:43;10.45;;;4.70;;
20997;SDS011;10657;51.276;6.390;2022-08-19T13:45:13;8.75;;;3.95;;
20997;SDS011;10657;51.276;6.390;2022-08-19T13:47:41;11.80;;;5.43;;
20997;SDS011;10657;51.276;6.390;2022-08-19T13:50:10;8.75;;;5.10;;
20997;SDS011;10657;51.276;6.390;2022-08-19T13:52:38;10.02;;;4.75;;
20997;SDS011;10657;51.276;6.390;2022-08-19T13:55:06;8.40;;;4.47;;
20997;SDS011;10657;51.276;6.390;2022-08-19T13:57:33;37.75;;;5.82;;
20997;SDS011;10657;51.276;6.390;2022-08-19T14:00:01;29.15;;;5.82;;
20997;SDS011;10657;51.276;6.390;2022-08-19T14:02:29;9.13;;;4.90;;
20997;SDS011;10657;51.276;6.390;2022-08-19T14:04:57;9.57;;;5.20;;
20997;SDS011;10657;51.276;6.390;2022-08-19T14:07:24;11.68;;;5.13;;
20997;SDS011;10657;51.276;6.390;2022-08-19T14:09:52;10.43;;;5.53;;
20997;SDS011;10657;51.276;6.390;2022-08-19T14:12:22;15.25;;;6.35;;
20997;SDS011;10657;51.276;6.390;2022-08-19T14:14:54;9.07;;;5.57;;
20997;SDS011;10657;51.276;6.390;2022-08-19T14:17:21;12.80;;;6.18;;
20997;SDS011;10657;51.276;6.390;2022-08-19T14:19:48;16.83;;;6.50;;
20997;SDS011;10657;51.276;6.390;2022-08-19T14:22:15;14.93;;;6.43;;
20997;SDS011;10657;51.276;6.390;2022-08-19T14:24:47;13.68;;;6.53;;
20997;SDS011;10657;51.276;6.390;2022-08-19T14:27:16;10.45;;;6.15;;
20997;SDS011;10657;51.276;6.390;2022-08-19T14:29:43;12.10;;;5.82;;
20997;SDS011;10657;51.276;6.390;2022-08-19T14:32:11;11.40;;;6.70;;
20997;SDS011;10657;51.276;6.390;2022-08-19T14:34:42;9.48;;;5.90;;
20997;SDS011;10657;51.276;6.390;2022-08-19T14:37:12;11.40;;;5.82;;
20997;SDS011;10657;51.276;6.390;2022-08-19T14:39:42;13.60;;;5.45;;
20997;SDS011;10657;51.276;6.390;2022-08-19T14:42:11;9.60;;;5.57;;
20997;SDS011;10657;51.276;6.390;2022-08-19T14:44:41;10.63;;;5.80;;
20997;SDS011;10657;51.276;6.390;2022-08-19T14:47:08;11.98;;;5.45;;
20997;SDS011;10657;51.276;6.390;2022-08-19T14:49:36;7.95;;;4.65;;
20997;SDS011;10657;51.276;6.390;2022-08-19T14:52:09;8.82;;;4.93;;